sensor_id;sensor_type;location;lat;lon;timestamp;P1;durP1;ratioP1;P2;durP2;ratioP2
45863;SDS011;31579;52.354;16.974;2022-07-29T00:00:06;11.20;;;3.70;;
45863;SDS011;31579;52.354;16.974;2022-07-29T00:05:05;7.70;;;3.30;;
45863;SDS011;31579;52.354;16.974;2022-07-29T00:10:09;7.70;;;3.30;;
45863;SDS011;31579;52.354;16.974;2022-07-29T00:15:05;9.60;;;3.60;;
45863;SDS011;31579;52.354;16.974;2022-07-29T00:20:05;9.60;;;3.60;;
45863;SDS011;31579;52.354;16.974;2022-07-29T00:25:06;12.50;;;3.70;;
45863;SDS011;31579;52.354;16.974;2022-07-29T00:30:06;12.50;;;3.70;;
45863;SDS011;31579;52.354;16.974;2022-07-29T00:35:05;10.20;;;3.90;;
45863;SDS011;31579;52.354;16.974;2022-07-29T00:40:05;10.20;;;3.90;;
45863;SDS011;31579;52.354;16.974;2022-07-29T00:45:05;7.40;;;4.00;;
45863;SDS011;31579;52.354;16.974;2022-07-29T00:53:21;11.60;;;4.20;;
45863;SDS011;31579;52.354;16.974;2022-07-29T00:58:21;11.60;;;4.20;;
45863;SDS011;31579;52.354;16.974;2022-07-29T01:03:21;9.20;;;4.00;;
45863;SDS011;31579;52.354;16.974;2022-07-29T01:08:21;9.20;;;4.00;;
45863;SDS011;31579;52.354;16.974;2022-07-29T01:13:21;10.30;;;4.10;;
45863;SDS011;31579;52.354;16.974;2022-07-29T01:18:30;10.30;;;4.10;;
45863;SDS011;31579;52.354;16.974;2022-07-29T01:33:24;13.10;;;4.70;;
45863;SDS011;31579;52.354;16.974;2022-07-29T01:38:21;13.10;;;4.70;;
45863;SDS011;31579;52.354;16.974;2022-07-29T01:43:27;13.90;;;5.10;;
45863;SDS011;31579;52.354;16.974;2022-07-29T01:48:23;13.90;;;5.10;;
45863;SDS011;31579;52.354;16.974;2022-07-29T01:53:24;10.20;;;4.70;;
45863;SDS011;31579;52.354;16.974;2022-07-29T01:58:21;10.20;;;4.70;;
45863;SDS011;31579;52.354;16.974;2022-07-29T02:03:21;12.10;;;4.70;;
45863;SDS011;31579;52.354;16.974;2022-07-29T02:08:21;12.10;;;4.70;;
45863;SDS011;31579;52.354;16.974;2022-07-29T02:13:21;13.70;;;4.90;;
45863;SDS011;31579;52.354;16.974;2022-07-29T02:17:04;13.70;;;4.90;;
45863;SDS011;31579;52.354;16.974;2022-07-29T02:20:31;13.70;;;4.90;;
45863;SDS011;31579;52.354;16.974;2022-07-29T02:25:29;12.00;;;5.00;;
45863;SDS011;31579;52.354;16.974;2022-07-29T02:30:29;12.00;;;5.00;;
45863;SDS011;31579;52.354;16.974;2022-07-29T02:35:29;12.30;;;5.10;;
45863;SDS011;31579;52.354;16.974;2022-07-29T02:40:29;12.30;;;5.10;;
45863;SDS011;31579;52.354;16.974;2022-07-29T02:45:29;10.00;;;4.80;;
45863;SDS011;31579;52.354;16.974;2022-07-29T02:50:30;10.00;;;4.80;;
45863;SDS011;31579;52.354;16.974;2022-07-29T02:53:38;9.80;;;5.60;;
45863;SDS011;31579;52.354;16.974;2022-07-29T02:58:38;9.80;;;5.60;;
45863;SDS011;31579;52.354;16.974;2022-07-29T03:03:37;10.70;;;6.10;;
45863;SDS011;31579;52.354;16.974;2022-07-29T03:08:36;10.70;;;6.10;;
45863;SDS011;31579;52.354;16.974;2022-07-29T03:13:36;9.30;;;5.20;;
45863;SDS011;31579;52.354;16.974;2022-07-29T03:18:36;9.30;;;5.20;;
45863;SDS011;31579;52.354;16.974;2022-07-29T03:23:37;10.10;;;5.20;;
45863;SDS011;31579;52.354;16.974;2022-07-29T03:28:36;10.10;;;5.20;;
45863;SDS011;31579;52.354;16.974;2022-07-29T03:33:36;10.00;;;5.10;;
45863;SDS011;31579;52.354;16.974;2022-07-29T03:38:36;10.00;;;5.10;;
45863;SDS011;31579;52.354;16.974;2022-07-29T03:43:37;10.60;;;4.40;;
45863;SDS011;31579;52.354;16.974;2022-07-29T03:48:37;10.60;;;4.40;;
45863;SDS011;31579;52.354;16.974;2022-07-29T03:53:36;10.50;;;4.90;;
45863;SDS011;31579;52.354;16.974;2022-07-29T03:58:36;10.50;;;4.90;;
45863;SDS011;31579;52.354;16.974;2022-07-29T04:03:47;12.20;;;4.50;;
45863;SDS011;31579;52.354;16.974;2022-07-29T04:08:45;12.20;;;4.50;;
45863;SDS011;31579;52.354;16.974;2022-07-29T04:13:45;10.60;;;4.60;;
45863;SDS011;31579;52.354;16.974;2022-07-29T04:18:45;10.60;;;4.60;;
45863;SDS011;31579;52.354;16.974;2022-07-29T04:23:45;11.60;;;4.10;;
45863;SDS011;31579;52.354;16.974;2022-07-29T04:28:45;11.60;;;4.10;;
45863;SDS011;31579;52.354;16.974;2022-07-29T04:33:45;10.50;;;3.60;;
45863;SDS011;31579;52.354;16.974;2022-07-29T04:38:45;10.50;;;3.60;;
45863;SDS011;31579;52.354;16.974;2022-07-29T04:43:45;8.10;;;4.10;;
45863;SDS011;31579;52.354;16.974;2022-07-29T04:48:45;8.10;;;4.10;;
45863;SDS011;31579;52.354;16.974;2022-07-29T04:53:45;8.60;;;3.80;;
45863;SDS011;31579;52.354;16.974;2022-07-29T04:58:45;8.60;;;3.80;;
45863;SDS011;31579;52.354;16.974;2022-07-29T05:03:45;13.40;;;4.00;;
45863;SDS011;31579;52.354;16.974;2022-07-29T05:08:45;13.40;;;4.00;;
45863;SDS011;31579;52.354;16.974;2022-07-29T05:13:45;7.70;;;3.80;;
45863;SDS011;31579;52.354;16.974;2022-07-29T05:18:45;7.70;;;3.80;;
45863;SDS011;31579;52.354;16.974;2022-07-29T05:23:45;7.10;;;4.10;;
45863;SDS011;31579;52.354;16.974;2022-07-29T05:28:45;7.10;;;4.10;;
45863;SDS011;31579;52.354;16.974;2022-07-29T05:33:45;7.10;;;3.50;;
45863;SDS011;31579;52.354;16.974;2022-07-29T05:38:48;7.10;;;3.50;;
45863;SDS011;31579;52.354;16.974;2022-07-29T05:43:45;8.20;;;2.70;;
45863;SDS011;31579;52.354;16.974;2022-07-29T05:48:45;8.20;;;2.70;;
45863;SDS011;31579;52.354;16.974;2022-07-29T05:53:45;7.60;;;2.80;;
45863;SDS011;31579;52.354;16.974;2022-07-29T05:58:45;7.60;;;2.80;;
45863;SDS011;31579;52.354;16.974;2022-07-29T06:03:45;8.60;;;2.30;;
45863;SDS011;31579;52.354;16.974;2022-07-29T06:08:45;8.60;;;2.30;;
45863;SDS011;31579;52.354;16.974;2022-07-29T06:13:45;5.20;;;2.40;;
45863;SDS011;31579;52.354;16.974;2022-07-29T06:18:45;5.20;;;2.40;;
45863;SDS011;31579;52.354;16.974;2022-07-29T06:23:45;8.00;;;2.10;;
45863;SDS011;31579;52.354;16.974;2022-07-29T06:28:48;8.00;;;2.10;;
45863;SDS011;31579;52.354;16.974;2022-07-29T06:33:45;5.60;;;2.00;;
45863;SDS011;31579;52.354;16.974;2022-07-29T06:38:45;5.60;;;2.00;;
45863;SDS011;31579;52.354;16.974;2022-07-29T06:43:45;5.20;;;1.90;;
45863;SDS011;31579;52.354;16.974;2022-07-29T06:48:45;5.20;;;1.90;;
45863;SDS011;31579;52.354;16.974;2022-07-29T06:53:45;4.80;;;1.90;;
45863;SDS011;31579;52.354;16.974;2022-07-29T06:58:45;4.80;;;1.90;;
45863;SDS011;31579;52.354;16.974;2022-07-29T07:02:51;5.60;;;2.00;;
45863;SDS011;31579;52.354;16.974;2022-07-29T07:07:49;5.60;;;2.00;;
45863;SDS011;31579;52.354;16.974;2022-07-29T07:12:49;6.60;;;2.20;;
45863;SDS011;31579;52.354;16.974;2022-07-29T07:17:49;6.60;;;2.20;;
45863;SDS011;31579;52.354;16.974;2022-07-29T07:22:49;7.70;;;1.70;;
45863;SDS011;31579;52.354;16.974;2022-07-29T07:27:49;7.70;;;1.70;;
45863;SDS011;31579;52.354;16.974;2022-07-29T07:32:52;5.30;;;1.90;;
45863;SDS011;31579;52.354;16.974;2022-07-29T07:37:49;5.30;;;1.90;;
45863;SDS011;31579;52.354;16.974;2022-07-29T07:42:49;5.40;;;2.00;;
45863;SDS011;31579;52.354;16.974;2022-07-29T07:47:49;5.40;;;2.00;;
45863;SDS011;31579;52.354;16.974;2022-07-29T07:52:53;5.50;;;1.70;;
45863;SDS011;31579;52.354;16.974;2022-07-29T07:57:49;5.50;;;1.70;;
45863;SDS011;31579;52.354;16.974;2022-07-29T08:02:49;6.00;;;1.60;;
45863;SDS011;31579;52.354;16.974;2022-07-29T08:07:49;6.00;;;1.60;;
45863;SDS011;31579;52.354;16.974;2022-07-29T08:12:49;6.00;;;2.00;;
45863;SDS011;31579;52.354;16.974;2022-07-29T08:17:49;6.00;;;2.00;;
45863;SDS011;31579;52.354;16.974;2022-07-29T08:22:52;6.80;;;1.50;;
45863;SDS011;31579;52.354;16.974;2022-07-29T08:27:49;6.80;;;1.50;;
45863;SDS011;31579;52.354;16.974;2022-07-29T08:32:49;4.30;;;1.70;;
45863;SDS011;31579;52.354;16.974;2022-07-29T08:37:49;4.30;;;1.70;;
45863;SDS011;31579;52.354;16.974;2022-07-29T08:42:50;3.90;;;1.70;;
45863;SDS011;31579;52.354;16.974;2022-07-29T08:52:13;5.80;;;1.50;;
45863;SDS011;31579;52.354;16.974;2022-07-29T08:57:14;5.80;;;1.50;;
45863;SDS011;31579;52.354;16.974;2022-07-29T09:07:15;6.40;;;1.70;;
45863;SDS011;31579;52.354;16.974;2022-07-29T09:12:13;5.80;;;1.70;;
45863;SDS011;31579;52.354;16.974;2022-07-29T09:17:13;5.80;;;1.70;;
45863;SDS011;31579;52.354;16.974;2022-07-29T09:22:13;7.90;;;1.80;;
45863;SDS011;31579;52.354;16.974;2022-07-29T09:32:15;5.30;;;1.60;;
45863;SDS011;31579;52.354;16.974;2022-07-29T09:37:25;5.30;;;1.60;;
45863;SDS011;31579;52.354;16.974;2022-07-29T09:42:13;4.50;;;1.70;;
45863;SDS011;31579;52.354;16.974;2022-07-29T09:47:13;4.50;;;1.70;;
45863;SDS011;31579;52.354;16.974;2022-07-29T09:52:13;5.20;;;1.40;;
45863;SDS011;31579;52.354;16.974;2022-07-29T09:57:22;5.20;;;1.40;;
45863;SDS011;31579;52.354;16.974;2022-07-29T10:02:13;4.00;;;1.40;;
45863;SDS011;31579;52.354;16.974;2022-07-29T10:07:13;4.00;;;1.40;;
45863;SDS011;31579;52.354;16.974;2022-07-29T10:12:13;4.60;;;1.80;;
45863;SDS011;31579;52.354;16.974;2022-07-29T10:17:13;4.60;;;1.80;;
45863;SDS011;31579;52.354;16.974;2022-07-29T10:22:13;5.80;;;1.50;;
45863;SDS011;31579;52.354;16.974;2022-07-29T10:27:13;5.80;;;1.50;;
45863;SDS011;31579;52.354;16.974;2022-07-29T10:45:12;9.90;;;2.10;;
45863;SDS011;31579;52.354;16.974;2022-07-29T10:50:12;9.90;;;2.10;;
45863;SDS011;31579;52.354;16.974;2022-07-29T11:05:15;6.50;;;2.40;;
45863;SDS011;31579;52.354;16.974;2022-07-29T11:15:14;6.60;;;2.60;;
45863;SDS011;31579;52.354;16.974;2022-07-29T11:25:13;6.10;;;2.00;;
45863;SDS011;31579;52.354;16.974;2022-07-29T11:30:12;6.10;;;2.00;;
45863;SDS011;31579;52.354;16.974;2022-07-29T11:35:16;3.70;;;1.90;;
45863;SDS011;31579;52.354;16.974;2022-07-29T11:47:13;5.70;;;2.30;;
45863;SDS011;31579;52.354;16.974;2022-07-29T11:52:13;6.00;;;2.00;;
45863;SDS011;31579;52.354;16.974;2022-07-29T11:57:15;6.00;;;2.00;;
45863;SDS011;31579;52.354;16.974;2022-07-29T12:02:14;5.40;;;2.50;;
45863;SDS011;31579;52.354;16.974;2022-07-29T12:07:17;5.40;;;2.50;;
45863;SDS011;31579;52.354;16.974;2022-07-29T12:12:15;8.80;;;2.30;;
45863;SDS011;31579;52.354;16.974;2022-07-29T12:22:13;4.90;;;2.20;;
45863;SDS011;31579;52.354;16.974;2022-07-29T12:27:16;4.90;;;2.20;;
45863;SDS011;31579;52.354;16.974;2022-07-29T12:32:13;4.70;;;2.70;;
45863;SDS011;31579;52.354;16.974;2022-07-29T12:37:13;4.70;;;2.70;;
45863;SDS011;31579;52.354;16.974;2022-07-29T12:42:14;5.50;;;2.20;;
45863;SDS011;31579;52.354;16.974;2022-07-29T12:47:14;5.50;;;2.20;;
45863;SDS011;31579;52.354;16.974;2022-07-29T12:57:13;7.00;;;3.40;;
45863;SDS011;31579;52.354;16.974;2022-07-29T13:07:13;5.50;;;2.60;;
45863;SDS011;31579;52.354;16.974;2022-07-29T13:12:13;5.80;;;2.80;;
45863;SDS011;31579;52.354;16.974;2022-07-29T13:17:14;5.80;;;2.80;;
45863;SDS011;31579;52.354;16.974;2022-07-29T13:22:15;6.00;;;2.50;;
45863;SDS011;31579;52.354;16.974;2022-07-29T13:27:14;6.00;;;2.50;;
45863;SDS011;31579;52.354;16.974;2022-07-29T13:32:13;6.00;;;2.50;;
45863;SDS011;31579;52.354;16.974;2022-07-29T13:37:14;4.40;;;2.50;;
45863;SDS011;31579;52.354;16.974;2022-07-29T13:44:04;4.90;;;3.00;;
45863;SDS011;31579;52.354;16.974;2022-07-29T13:49:04;4.90;;;3.00;;
45863;SDS011;31579;52.354;16.974;2022-07-29T13:54:04;4.10;;;2.10;;
45863;SDS011;31579;52.354;16.974;2022-07-29T13:59:04;4.10;;;2.10;;
45863;SDS011;31579;52.354;16.974;2022-07-29T14:04:04;5.80;;;2.80;;
45863;SDS011;31579;52.354;16.974;2022-07-29T14:09:04;5.80;;;2.80;;
45863;SDS011;31579;52.354;16.974;2022-07-29T14:14:04;4.40;;;2.70;;
45863;SDS011;31579;52.354;16.974;2022-07-29T14:19:04;4.40;;;2.70;;
45863;SDS011;31579;52.354;16.974;2022-07-29T14:24:06;4.60;;;2.80;;
45863;SDS011;31579;52.354;16.974;2022-07-29T14:29:04;4.60;;;2.80;;
45863;SDS011;31579;52.354;16.974;2022-07-29T14:34:04;6.50;;;2.50;;
45863;SDS011;31579;52.354;16.974;2022-07-29T14:39:04;6.50;;;2.50;;
45863;SDS011;31579;52.354;16.974;2022-07-29T14:44:04;3.90;;;2.30;;
45863;SDS011;31579;52.354;16.974;2022-07-29T14:49:04;3.90;;;2.30;;
45863;SDS011;31579;52.354;16.974;2022-07-29T14:54:04;7.00;;;3.00;;
45863;SDS011;31579;52.354;16.974;2022-07-29T15:01:02;7.00;;;3.00;;
45863;SDS011;31579;52.354;16.974;2022-07-29T15:06:02;5.20;;;2.90;;
45863;SDS011;31579;52.354;16.974;2022-07-29T15:11:02;5.20;;;2.90;;
45863;SDS011;31579;52.354;16.974;2022-07-29T15:16:02;5.40;;;2.70;;
45863;SDS011;31579;52.354;16.974;2022-07-29T15:21:02;5.40;;;2.70;;
45863;SDS011;31579;52.354;16.974;2022-07-29T15:26:04;4.70;;;2.50;;
45863;SDS011;31579;52.354;16.974;2022-07-29T15:31:02;4.70;;;2.50;;
45863;SDS011;31579;52.354;16.974;2022-07-29T15:36:02;4.50;;;3.00;;
45863;SDS011;31579;52.354;16.974;2022-07-29T15:41:02;4.50;;;3.00;;
45863;SDS011;31579;52.354;16.974;2022-07-29T15:46:02;5.30;;;2.80;;
45863;SDS011;31579;52.354;16.974;2022-07-29T15:51:02;5.30;;;2.80;;
45863;SDS011;31579;52.354;16.974;2022-07-29T15:56:06;5.30;;;3.10;;
45863;SDS011;31579;52.354;16.974;2022-07-29T16:01:02;5.30;;;3.10;;
45863;SDS011;31579;52.354;16.974;2022-07-29T16:06:02;6.20;;;2.90;;
45863;SDS011;31579;52.354;16.974;2022-07-29T16:11:04;6.20;;;2.90;;
45863;SDS011;31579;52.354;16.974;2022-07-29T16:16:02;4.90;;;2.70;;
45863;SDS011;31579;52.354;16.974;2022-07-29T16:21:02;4.90;;;2.70;;
45863;SDS011;31579;52.354;16.974;2022-07-29T16:26:02;6.40;;;2.80;;
45863;SDS011;31579;52.354;16.974;2022-07-29T16:35:10;8.00;;;3.60;;
45863;SDS011;31579;52.354;16.974;2022-07-29T16:40:10;8.00;;;3.60;;
45863;SDS011;31579;52.354;16.974;2022-07-29T16:45:10;4.90;;;3.00;;
45863;SDS011;31579;52.354;16.974;2022-07-29T16:53:35;6.20;;;3.10;;
45863;SDS011;31579;52.354;16.974;2022-07-29T16:58:35;6.20;;;3.10;;
45863;SDS011;31579;52.354;16.974;2022-07-29T17:03:35;6.20;;;4.40;;
45863;SDS011;31579;52.354;16.974;2022-07-29T17:08:35;6.20;;;4.40;;
45863;SDS011;31579;52.354;16.974;2022-07-29T17:13:35;4.40;;;3.50;;
45863;SDS011;31579;52.354;16.974;2022-07-29T17:18:37;4.40;;;3.50;;
45863;SDS011;31579;52.354;16.974;2022-07-29T17:23:35;5.90;;;3.60;;
45863;SDS011;31579;52.354;16.974;2022-07-29T17:28:35;5.90;;;3.60;;
45863;SDS011;31579;52.354;16.974;2022-07-29T17:33:35;5.40;;;2.90;;
45863;SDS011;31579;52.354;16.974;2022-07-29T17:38:35;5.40;;;2.90;;
45863;SDS011;31579;52.354;16.974;2022-07-29T17:43:35;6.80;;;2.50;;
45863;SDS011;31579;52.354;16.974;2022-07-29T17:48:35;6.80;;;2.50;;
45863;SDS011;31579;52.354;16.974;2022-07-29T17:53:35;9.50;;;3.10;;
45863;SDS011;31579;52.354;16.974;2022-07-29T18:03:04;7.00;;;3.30;;
45863;SDS011;31579;52.354;16.974;2022-07-29T18:08:04;7.00;;;3.30;;
45863;SDS011;31579;52.354;16.974;2022-07-29T18:13:04;10.40;;;3.60;;
45863;SDS011;31579;52.354;16.974;2022-07-29T18:18:04;10.40;;;3.60;;
45863;SDS011;31579;52.354;16.974;2022-07-29T18:23:04;6.50;;;3.10;;
45863;SDS011;31579;52.354;16.974;2022-07-29T18:28:07;6.50;;;3.10;;
45863;SDS011;31579;52.354;16.974;2022-07-29T18:33:04;6.10;;;3.10;;
45863;SDS011;31579;52.354;16.974;2022-07-29T18:38:04;6.10;;;3.10;;
45863;SDS011;31579;52.354;16.974;2022-07-29T18:43:04;6.80;;;2.90;;
45863;SDS011;31579;52.354;16.974;2022-07-29T18:48:04;6.80;;;2.90;;
45863;SDS011;31579;52.354;16.974;2022-07-29T18:53:04;5.70;;;2.70;;
45863;SDS011;31579;52.354;16.974;2022-07-29T18:58:04;5.70;;;2.70;;
45863;SDS011;31579;52.354;16.974;2022-07-29T19:06:10;6.70;;;2.70;;
45863;SDS011;31579;52.354;16.974;2022-07-29T19:11:10;6.70;;;2.70;;
45863;SDS011;31579;52.354;16.974;2022-07-29T19:18:10;5.60;;;3.40;;
45863;SDS011;31579;52.354;16.974;2022-07-29T19:23:10;9.30;;;2.90;;
45863;SDS011;31579;52.354;16.974;2022-07-29T19:28:10;9.30;;;2.90;;
45863;SDS011;31579;52.354;16.974;2022-07-29T19:33:10;10.50;;;3.00;;
45863;SDS011;31579;52.354;16.974;2022-07-29T19:38:10;10.50;;;3.00;;
45863;SDS011;31579;52.354;16.974;2022-07-29T19:43:15;7.30;;;3.10;;
45863;SDS011;31579;52.354;16.974;2022-07-29T19:48:10;7.30;;;3.10;;
45863;SDS011;31579;52.354;16.974;2022-07-29T19:53:10;8.10;;;3.00;;
45863;SDS011;31579;52.354;16.974;2022-07-29T19:58:11;8.10;;;3.00;;
45863;SDS011;31579;52.354;16.974;2022-07-29T20:03:10;7.30;;;2.90;;
45863;SDS011;31579;52.354;16.974;2022-07-29T20:08:10;7.30;;;2.90;;
45863;SDS011;31579;52.354;16.974;2022-07-29T20:13:10;7.20;;;3.00;;
45863;SDS011;31579;52.354;16.974;2022-07-29T20:18:10;7.20;;;3.00;;
45863;SDS011;31579;52.354;16.974;2022-07-29T20:23:10;5.70;;;3.30;;
45863;SDS011;31579;52.354;16.974;2022-07-29T20:28:10;5.70;;;3.30;;
45863;SDS011;31579;52.354;16.974;2022-07-29T20:33:10;10.70;;;3.20;;
45863;SDS011;31579;52.354;16.974;2022-07-29T20:38:10;10.70;;;3.20;;
45863;SDS011;31579;52.354;16.974;2022-07-29T20:43:10;6.70;;;3.00;;
45863;SDS011;31579;52.354;16.974;2022-07-29T20:45:07;6.70;;;3.00;;
45863;SDS011;31579;52.354;16.974;2022-07-29T20:50:06;6.70;;;3.00;;
45863;SDS011;31579;52.354;16.974;2022-07-29T20:55:17;8.60;;;3.20;;
45863;SDS011;31579;52.354;16.974;2022-07-29T21:00:16;8.60;;;3.20;;
45863;SDS011;31579;52.354;16.974;2022-07-29T21:05:15;5.30;;;3.00;;
45863;SDS011;31579;52.354;16.974;2022-07-29T21:10:15;5.30;;;3.00;;
45863;SDS011;31579;52.354;16.974;2022-07-29T21:15:15;6.00;;;3.00;;
45863;SDS011;31579;52.354;16.974;2022-07-29T21:20:16;6.00;;;3.00;;
45863;SDS011;31579;52.354;16.974;2022-07-29T21:25:17;7.10;;;2.90;;
45863;SDS011;31579;52.354;16.974;2022-07-29T21:30:15;7.10;;;2.90;;
45863;SDS011;31579;52.354;16.974;2022-07-29T21:35:15;5.30;;;2.70;;
45863;SDS011;31579;52.354;16.974;2022-07-29T21:40:17;5.30;;;2.70;;
45863;SDS011;31579;52.354;16.974;2022-07-29T21:45:15;6.80;;;3.00;;
45863;SDS011;31579;52.354;16.974;2022-07-29T21:50:15;6.80;;;3.00;;
45863;SDS011;31579;52.354;16.974;2022-07-29T21:55:15;6.60;;;3.00;;
45863;SDS011;31579;52.354;16.974;2022-07-29T22:00:15;6.60;;;3.00;;
45863;SDS011;31579;52.354;16.974;2022-07-29T22:05:15;10.60;;;3.40;;
45863;SDS011;31579;52.354;16.974;2022-07-29T22:10:15;10.60;;;3.40;;
45863;SDS011;31579;52.354;16.974;2022-07-29T22:15:15;11.50;;;4.00;;
45863;SDS011;31579;52.354;16.974;2022-07-29T22:20:16;11.50;;;4.00;;
45863;SDS011;31579;52.354;16.974;2022-07-29T22:25:15;6.90;;;3.20;;
45863;SDS011;31579;52.354;16.974;2022-07-29T22:30:16;6.90;;;3.20;;
45863;SDS011;31579;52.354;16.974;2022-07-29T22:35:15;7.00;;;3.40;;
45863;SDS011;31579;52.354;16.974;2022-07-29T22:40:15;7.00;;;3.40;;
45863;SDS011;31579;52.354;16.974;2022-07-29T22:45:15;6.70;;;3.00;;
45863;SDS011;31579;52.354;16.974;2022-07-29T22:50:16;6.70;;;3.00;;
45863;SDS011;31579;52.354;16.974;2022-07-29T22:55:15;5.80;;;2.70;;
45863;SDS011;31579;52.354;16.974;2022-07-29T23:00:16;5.80;;;2.70;;
45863;SDS011;31579;52.354;16.974;2022-07-29T23:05:15;9.60;;;2.70;;
45863;SDS011;31579;52.354;16.974;2022-07-29T23:10:15;9.60;;;2.70;;
45863;SDS011;31579;52.354;16.974;2022-07-29T23:15:19;6.60;;;2.20;;
45863;SDS011;31579;52.354;16.974;2022-07-29T23:20:15;6.60;;;2.20;;
45863;SDS011;31579;52.354;16.974;2022-07-29T23:25:15;7.00;;;2.20;;
45863;SDS011;31579;52.354;16.974;2022-07-29T23:30:15;7.00;;;2.20;;
45863;SDS011;31579;52.354;16.974;2022-07-29T23:35:15;5.10;;;2.40;;
45863;SDS011;31579;52.354;16.974;2022-07-29T23:40:15;5.10;;;2.40;;
45863;SDS011;31579;52.354;16.974;2022-07-29T23:45:15;6.30;;;2.30;;
45863;SDS011;31579;52.354;16.974;2022-07-29T23:50:15;6.30;;;2.30;;
45863;SDS011;31579;52.354;16.974;2022-07-29T23:55:16;8.50;;;2.20;;
